sensor_id;sensor_type;location;lat;lon;timestamp;P1;durP1;ratioP1;P2;durP2;ratioP2
74487;SDS011;63019;51.080;13.642;2023-04-08T00:00:07;21.60;;;9.00;;
74487;SDS011;63019;51.080;13.642;2023-04-08T00:01:09;22.05;;;9.77;;
74487;SDS011;63019;51.080;13.642;2023-04-08T00:02:11;20.40;;;8.77;;
74487;SDS011;63019;51.080;13.642;2023-04-08T00:03:13;19.48;;;9.20;;
74487;SDS011;63019;51.080;13.642;2023-04-08T00:04:16;20.83;;;8.73;;
74487;SDS011;63019;51.080;13.642;2023-04-08T00:05:18;20.42;;;8.63;;
74487;SDS011;63019;51.080;13.642;2023-04-08T00:06:19;20.52;;;8.68;;
74487;SDS011;63019;51.080;13.642;2023-04-08T00:07:21;21.85;;;9.40;;
74487;SDS011;63019;51.080;13.642;2023-04-08T00:08:23;22.10;;;9.40;;
74487;SDS011;63019;51.080;13.642;2023-04-08T00:09:25;22.50;;;9.35;;
74487;SDS011;63019;51.080;13.642;2023-04-08T00:10:26;20.85;;;9.20;;
74487;SDS011;63019;51.080;13.642;2023-04-08T00:11:28;22.13;;;9.18;;
74487;SDS011;63019;51.080;13.642;2023-04-08T00:12:30;21.87;;;9.13;;
74487;SDS011;63019;51.080;13.642;2023-04-08T00:13:33;19.95;;;9.18;;
74487;SDS011;63019;51.080;13.642;2023-04-08T00:14:34;23.40;;;8.82;;
74487;SDS011;63019;51.080;13.642;2023-04-08T00:15:38;20.15;;;8.90;;
74487;SDS011;63019;51.080;13.642;2023-04-08T00:16:41;20.80;;;8.30;;
74487;SDS011;63019;51.080;13.642;2023-04-08T00:17:42;22.60;;;9.18;;
74487;SDS011;63019;51.080;13.642;2023-04-08T00:18:45;22.38;;;8.88;;
74487;SDS011;63019;51.080;13.642;2023-04-08T00:19:47;20.50;;;9.23;;
74487;SDS011;63019;51.080;13.642;2023-04-08T00:20:49;19.33;;;8.52;;
74487;SDS011;63019;51.080;13.642;2023-04-08T00:21:51;19.23;;;8.63;;
74487;SDS011;63019;51.080;13.642;2023-04-08T00:22:53;22.53;;;8.47;;
74487;SDS011;63019;51.080;13.642;2023-04-08T00:23:55;19.63;;;7.97;;
74487;SDS011;63019;51.080;13.642;2023-04-08T00:24:57;19.20;;;7.63;;
74487;SDS011;63019;51.080;13.642;2023-04-08T00:25:59;19.05;;;8.00;;
74487;SDS011;63019;51.080;13.642;2023-04-08T00:27:01;21.52;;;8.55;;
74487;SDS011;63019;51.080;13.642;2023-04-08T00:28:06;18.23;;;8.10;;
74487;SDS011;63019;51.080;13.642;2023-04-08T00:29:08;20.65;;;8.27;;
74487;SDS011;63019;51.080;13.642;2023-04-08T00:30:09;22.98;;;8.80;;
74487;SDS011;63019;51.080;13.642;2023-04-08T00:31:11;19.90;;;8.68;;
74487;SDS011;63019;51.080;13.642;2023-04-08T00:32:13;21.15;;;8.45;;
74487;SDS011;63019;51.080;13.642;2023-04-08T00:33:15;21.83;;;8.80;;
74487;SDS011;63019;51.080;13.642;2023-04-08T00:34:17;20.33;;;8.25;;
74487;SDS011;63019;51.080;13.642;2023-04-08T00:35:19;20.65;;;8.25;;
74487;SDS011;63019;51.080;13.642;2023-04-08T00:36:21;20.20;;;7.72;;
74487;SDS011;63019;51.080;13.642;2023-04-08T00:37:23;20.42;;;8.55;;
74487;SDS011;63019;51.080;13.642;2023-04-08T00:38:25;20.60;;;8.23;;
74487;SDS011;63019;51.080;13.642;2023-04-08T00:39:27;19.70;;;7.57;;
74487;SDS011;63019;51.080;13.642;2023-04-08T00:40:28;18.95;;;7.80;;
74487;SDS011;63019;51.080;13.642;2023-04-08T00:41:30;17.40;;;7.80;;
74487;SDS011;63019;51.080;13.642;2023-04-08T00:42:32;17.00;;;8.23;;
74487;SDS011;63019;51.080;13.642;2023-04-08T00:43:33;17.27;;;7.63;;
74487;SDS011;63019;51.080;13.642;2023-04-08T00:44:36;18.80;;;7.18;;
74487;SDS011;63019;51.080;13.642;2023-04-08T00:45:37;19.83;;;8.07;;
74487;SDS011;63019;51.080;13.642;2023-04-08T00:46:39;16.17;;;7.30;;
74487;SDS011;63019;51.080;13.642;2023-04-08T00:47:41;18.75;;;7.80;;
74487;SDS011;63019;51.080;13.642;2023-04-08T00:48:44;22.02;;;7.65;;
74487;SDS011;63019;51.080;13.642;2023-04-08T00:49:46;17.15;;;7.03;;
74487;SDS011;63019;51.080;13.642;2023-04-08T00:50:47;16.77;;;6.93;;
74487;SDS011;63019;51.080;13.642;2023-04-08T00:51:49;15.35;;;7.20;;
74487;SDS011;63019;51.080;13.642;2023-04-08T00:52:51;19.08;;;7.72;;
74487;SDS011;63019;51.080;13.642;2023-04-08T00:53:53;16.57;;;7.30;;
74487;SDS011;63019;51.080;13.642;2023-04-08T00:54:55;16.77;;;7.25;;
74487;SDS011;63019;51.080;13.642;2023-04-08T00:55:57;15.45;;;6.72;;
74487;SDS011;63019;51.080;13.642;2023-04-08T00:57:01;18.08;;;6.97;;
74487;SDS011;63019;51.080;13.642;2023-04-08T00:58:03;16.58;;;6.97;;
74487;SDS011;63019;51.080;13.642;2023-04-08T00:59:05;16.60;;;7.30;;
74487;SDS011;63019;51.080;13.642;2023-04-08T01:00:07;16.92;;;6.88;;
74487;SDS011;63019;51.080;13.642;2023-04-08T01:01:11;17.13;;;7.50;;
74487;SDS011;63019;51.080;13.642;2023-04-08T01:03:51;15.00;;;6.47;;
74487;SDS011;63019;51.080;13.642;2023-04-08T01:05:08;13.40;;;5.87;;
74487;SDS011;63019;51.080;13.642;2023-04-08T01:07:33;18.40;;;6.90;;
74487;SDS011;63019;51.080;13.642;2023-04-08T01:08:37;16.17;;;7.05;;
74487;SDS011;63019;51.080;13.642;2023-04-08T01:09:44;14.63;;;6.50;;
74487;SDS011;63019;51.080;13.642;2023-04-08T01:10:49;16.15;;;7.13;;
74487;SDS011;63019;51.080;13.642;2023-04-08T01:11:54;19.20;;;6.97;;
74487;SDS011;63019;51.080;13.642;2023-04-08T01:12:58;18.25;;;6.75;;
74487;SDS011;63019;51.080;13.642;2023-04-08T01:14:05;19.40;;;7.25;;
74487;SDS011;63019;51.080;13.642;2023-04-08T01:15:10;16.17;;;6.97;;
74487;SDS011;63019;51.080;13.642;2023-04-08T01:16:13;17.27;;;7.00;;
74487;SDS011;63019;51.080;13.642;2023-04-08T01:17:17;15.43;;;6.47;;
74487;SDS011;63019;51.080;13.642;2023-04-08T01:18:21;15.95;;;6.85;;
74487;SDS011;63019;51.080;13.642;2023-04-08T01:19:32;16.92;;;6.32;;
74487;SDS011;63019;51.080;13.642;2023-04-08T01:20:37;16.70;;;6.95;;
74487;SDS011;63019;51.080;13.642;2023-04-08T01:21:41;17.50;;;6.80;;
74487;SDS011;63019;51.080;13.642;2023-04-08T01:24:12;17.13;;;6.57;;
74487;SDS011;63019;51.080;13.642;2023-04-08T01:25:26;14.00;;;5.97;;
74487;SDS011;63019;51.080;13.642;2023-04-08T01:26:34;14.85;;;6.18;;
74487;SDS011;63019;51.080;13.642;2023-04-08T01:27:36;16.53;;;6.37;;
74487;SDS011;63019;51.080;13.642;2023-04-08T01:28:39;17.08;;;6.95;;
74487;SDS011;63019;51.080;13.642;2023-04-08T01:29:44;18.55;;;7.35;;
74487;SDS011;63019;51.080;13.642;2023-04-08T01:30:47;19.33;;;7.45;;
74487;SDS011;63019;51.080;13.642;2023-04-08T01:31:51;12.68;;;6.30;;
74487;SDS011;63019;51.080;13.642;2023-04-08T01:32:54;16.85;;;6.88;;
74487;SDS011;63019;51.080;13.642;2023-04-08T01:33:58;18.80;;;7.35;;
74487;SDS011;63019;51.080;13.642;2023-04-08T01:35:01;15.48;;;6.30;;
74487;SDS011;63019;51.080;13.642;2023-04-08T01:36:03;20.83;;;7.43;;
74487;SDS011;63019;51.080;13.642;2023-04-08T01:37:06;13.40;;;6.53;;
74487;SDS011;63019;51.080;13.642;2023-04-08T01:38:09;16.70;;;6.50;;
74487;SDS011;63019;51.080;13.642;2023-04-08T01:39:15;16.45;;;6.30;;
74487;SDS011;63019;51.080;13.642;2023-04-08T01:40:19;16.83;;;6.65;;
74487;SDS011;63019;51.080;13.642;2023-04-08T01:41:21;15.23;;;5.78;;
74487;SDS011;63019;51.080;13.642;2023-04-08T01:42:23;13.05;;;6.03;;
74487;SDS011;63019;51.080;13.642;2023-04-08T01:43:27;15.30;;;6.47;;
74487;SDS011;63019;51.080;13.642;2023-04-08T01:44:29;17.17;;;6.75;;
74487;SDS011;63019;51.080;13.642;2023-04-08T01:45:33;18.25;;;7.13;;
74487;SDS011;63019;51.080;13.642;2023-04-08T01:46:35;19.83;;;7.10;;
74487;SDS011;63019;51.080;13.642;2023-04-08T01:47:39;16.23;;;6.60;;
74487;SDS011;63019;51.080;13.642;2023-04-08T01:48:41;15.00;;;6.33;;
74487;SDS011;63019;51.080;13.642;2023-04-08T01:49:45;18.88;;;6.50;;
74487;SDS011;63019;51.080;13.642;2023-04-08T01:50:47;16.25;;;7.07;;
74487;SDS011;63019;51.080;13.642;2023-04-08T01:51:51;16.75;;;7.20;;
74487;SDS011;63019;51.080;13.642;2023-04-08T01:52:57;15.65;;;6.55;;
74487;SDS011;63019;51.080;13.642;2023-04-08T01:54:00;14.48;;;5.97;;
74487;SDS011;63019;51.080;13.642;2023-04-08T01:55:04;16.90;;;6.45;;
74487;SDS011;63019;51.080;13.642;2023-04-08T01:56:08;17.10;;;6.32;;
74487;SDS011;63019;51.080;13.642;2023-04-08T01:57:17;13.88;;;6.25;;
74487;SDS011;63019;51.080;13.642;2023-04-08T01:58:23;14.00;;;5.18;;
74487;SDS011;63019;51.080;13.642;2023-04-08T01:59:31;14.27;;;5.97;;
74487;SDS011;63019;51.080;13.642;2023-04-08T02:00:36;13.27;;;5.60;;
74487;SDS011;63019;51.080;13.642;2023-04-08T02:01:41;14.63;;;6.07;;
74487;SDS011;63019;51.080;13.642;2023-04-08T02:02:45;19.00;;;6.38;;
74487;SDS011;63019;51.080;13.642;2023-04-08T02:03:48;16.10;;;6.25;;
74487;SDS011;63019;51.080;13.642;2023-04-08T02:04:53;15.65;;;6.28;;
74487;SDS011;63019;51.080;13.642;2023-04-08T02:05:55;20.58;;;7.03;;
74487;SDS011;63019;51.080;13.642;2023-04-08T02:06:57;15.40;;;6.05;;
74487;SDS011;63019;51.080;13.642;2023-04-08T02:07:59;19.13;;;6.60;;
74487;SDS011;63019;51.080;13.642;2023-04-08T02:09:02;17.33;;;6.35;;
74487;SDS011;63019;51.080;13.642;2023-04-08T02:10:06;18.43;;;7.20;;
74487;SDS011;63019;51.080;13.642;2023-04-08T02:11:08;17.33;;;6.25;;
74487;SDS011;63019;51.080;13.642;2023-04-08T02:12:10;15.23;;;5.68;;
74487;SDS011;63019;51.080;13.642;2023-04-08T02:13:12;18.80;;;6.55;;
74487;SDS011;63019;51.080;13.642;2023-04-08T02:14:14;17.25;;;7.00;;
74487;SDS011;63019;51.080;13.642;2023-04-08T02:15:16;15.35;;;6.18;;
74487;SDS011;63019;51.080;13.642;2023-04-08T02:16:20;20.70;;;6.88;;
74487;SDS011;63019;51.080;13.642;2023-04-08T02:17:46;16.70;;;6.15;;
74487;SDS011;63019;51.080;13.642;2023-04-08T02:18:54;19.70;;;6.75;;
74487;SDS011;63019;51.080;13.642;2023-04-08T02:19:59;15.80;;;5.95;;
74487;SDS011;63019;51.080;13.642;2023-04-08T02:21:15;20.53;;;6.37;;
74487;SDS011;63019;51.080;13.642;2023-04-08T02:22:24;17.55;;;5.78;;
74487;SDS011;63019;51.080;13.642;2023-04-08T02:23:32;22.80;;;7.43;;
74487;SDS011;63019;51.080;13.642;2023-04-08T02:24:36;20.73;;;6.63;;
74487;SDS011;63019;51.080;13.642;2023-04-08T02:25:42;21.17;;;7.00;;
74487;SDS011;63019;51.080;13.642;2023-04-08T02:26:46;19.35;;;7.13;;
74487;SDS011;63019;51.080;13.642;2023-04-08T02:27:51;21.88;;;7.30;;
74487;SDS011;63019;51.080;13.642;2023-04-08T02:28:56;21.88;;;7.45;;
74487;SDS011;63019;51.080;13.642;2023-04-08T02:29:58;22.58;;;6.53;;
74487;SDS011;63019;51.080;13.642;2023-04-08T02:31:02;23.67;;;7.53;;
74487;SDS011;63019;51.080;13.642;2023-04-08T02:32:06;20.13;;;6.57;;
74487;SDS011;63019;51.080;13.642;2023-04-08T02:33:10;17.20;;;6.20;;
74487;SDS011;63019;51.080;13.642;2023-04-08T02:34:14;20.48;;;6.18;;
74487;SDS011;63019;51.080;13.642;2023-04-08T02:35:18;15.93;;;6.20;;
74487;SDS011;63019;51.080;13.642;2023-04-08T02:36:20;16.05;;;5.78;;
74487;SDS011;63019;51.080;13.642;2023-04-08T02:37:22;21.73;;;7.13;;
74487;SDS011;63019;51.080;13.642;2023-04-08T02:38:24;17.23;;;6.30;;
74487;SDS011;63019;51.080;13.642;2023-04-08T02:39:30;19.35;;;6.40;;
74487;SDS011;63019;51.080;13.642;2023-04-08T02:40:33;19.25;;;6.55;;
74487;SDS011;63019;51.080;13.642;2023-04-08T02:41:35;22.05;;;7.05;;
74487;SDS011;63019;51.080;13.642;2023-04-08T02:42:37;23.87;;;6.93;;
74487;SDS011;63019;51.080;13.642;2023-04-08T02:43:39;20.40;;;6.75;;
74487;SDS011;63019;51.080;13.642;2023-04-08T02:44:41;22.90;;;6.72;;
74487;SDS011;63019;51.080;13.642;2023-04-08T02:45:43;20.00;;;7.20;;
74487;SDS011;63019;51.080;13.642;2023-04-08T02:46:45;19.58;;;6.72;;
74487;SDS011;63019;51.080;13.642;2023-04-08T02:47:47;22.90;;;6.72;;
74487;SDS011;63019;51.080;13.642;2023-04-08T02:48:49;24.13;;;7.25;;
74487;SDS011;63019;51.080;13.642;2023-04-08T02:49:51;19.00;;;7.28;;
74487;SDS011;63019;51.080;13.642;2023-04-08T02:50:55;16.65;;;5.88;;
74487;SDS011;63019;51.080;13.642;2023-04-08T02:51:57;18.25;;;6.75;;
74487;SDS011;63019;51.080;13.642;2023-04-08T02:52:59;19.70;;;5.83;;
74487;SDS011;63019;51.080;13.642;2023-04-08T02:54:01;17.27;;;5.95;;
74487;SDS011;63019;51.080;13.642;2023-04-08T02:55:02;23.38;;;6.40;;
74487;SDS011;63019;51.080;13.642;2023-04-08T02:56:09;17.23;;;6.00;;
74487;SDS011;63019;51.080;13.642;2023-04-08T02:57:12;15.93;;;5.55;;
74487;SDS011;63019;51.080;13.642;2023-04-08T02:58:14;18.20;;;5.93;;
74487;SDS011;63019;51.080;13.642;2023-04-08T02:59:16;18.23;;;5.95;;
74487;SDS011;63019;51.080;13.642;2023-04-08T03:00:18;16.60;;;5.63;;
74487;SDS011;63019;51.080;13.642;2023-04-08T03:01:19;18.98;;;6.70;;
74487;SDS011;63019;51.080;13.642;2023-04-08T03:02:21;20.10;;;6.30;;
74487;SDS011;63019;51.080;13.642;2023-04-08T03:03:23;19.50;;;6.60;;
74487;SDS011;63019;51.080;13.642;2023-04-08T03:04:29;16.45;;;6.20;;
74487;SDS011;63019;51.080;13.642;2023-04-08T03:05:31;18.20;;;6.07;;
74487;SDS011;63019;51.080;13.642;2023-04-08T03:06:33;18.00;;;6.20;;
74487;SDS011;63019;51.080;13.642;2023-04-08T03:07:35;18.58;;;6.38;;
74487;SDS011;63019;51.080;13.642;2023-04-08T03:08:37;16.63;;;5.85;;
74487;SDS011;63019;51.080;13.642;2023-04-08T03:09:39;14.75;;;5.95;;
74487;SDS011;63019;51.080;13.642;2023-04-08T03:10:41;17.48;;;6.43;;
74487;SDS011;63019;51.080;13.642;2023-04-08T03:11:43;16.33;;;6.25;;
74487;SDS011;63019;51.080;13.642;2023-04-08T03:12:45;17.27;;;6.00;;
74487;SDS011;63019;51.080;13.642;2023-04-08T03:13:46;18.37;;;5.70;;
74487;SDS011;63019;51.080;13.642;2023-04-08T03:14:49;21.45;;;6.07;;
74487;SDS011;63019;51.080;13.642;2023-04-08T03:15:51;14.73;;;5.63;;
74487;SDS011;63019;51.080;13.642;2023-04-08T03:16:52;12.35;;;5.97;;
74487;SDS011;63019;51.080;13.642;2023-04-08T03:17:54;13.80;;;5.45;;
74487;SDS011;63019;51.080;13.642;2023-04-08T03:18:56;17.08;;;6.10;;
74487;SDS011;63019;51.080;13.642;2023-04-08T03:19:58;12.70;;;5.05;;
74487;SDS011;63019;51.080;13.642;2023-04-08T03:21:00;16.20;;;6.22;;
74487;SDS011;63019;51.080;13.642;2023-04-08T03:22:03;15.13;;;5.10;;
74487;SDS011;63019;51.080;13.642;2023-04-08T03:23:05;13.95;;;5.47;;
74487;SDS011;63019;51.080;13.642;2023-04-08T03:24:07;13.83;;;5.33;;
74487;SDS011;63019;51.080;13.642;2023-04-08T03:25:09;19.58;;;6.05;;
74487;SDS011;63019;51.080;13.642;2023-04-08T03:26:11;16.73;;;5.55;;
74487;SDS011;63019;51.080;13.642;2023-04-08T03:27:13;12.93;;;5.25;;
74487;SDS011;63019;51.080;13.642;2023-04-08T03:28:15;15.80;;;4.80;;
74487;SDS011;63019;51.080;13.642;2023-04-08T03:29:17;11.35;;;4.53;;
74487;SDS011;63019;51.080;13.642;2023-04-08T03:30:19;14.75;;;5.00;;
74487;SDS011;63019;51.080;13.642;2023-04-08T03:31:21;15.50;;;5.30;;
74487;SDS011;63019;51.080;13.642;2023-04-08T03:32:23;12.70;;;5.03;;
74487;SDS011;63019;51.080;13.642;2023-04-08T03:33:25;12.43;;;4.85;;
74487;SDS011;63019;51.080;13.642;2023-04-08T03:34:27;11.70;;;4.63;;
74487;SDS011;63019;51.080;13.642;2023-04-08T03:35:29;13.38;;;4.53;;
74487;SDS011;63019;51.080;13.642;2023-04-08T03:36:31;15.02;;;5.57;;
74487;SDS011;63019;51.080;13.642;2023-04-08T03:37:33;10.90;;;4.55;;
74487;SDS011;63019;51.080;13.642;2023-04-08T03:38:34;11.38;;;4.72;;
74487;SDS011;63019;51.080;13.642;2023-04-08T03:39:36;9.63;;;4.10;;
74487;SDS011;63019;51.080;13.642;2023-04-08T03:40:38;12.63;;;4.57;;
74487;SDS011;63019;51.080;13.642;2023-04-08T03:41:40;12.48;;;4.88;;
74487;SDS011;63019;51.080;13.642;2023-04-08T03:42:42;13.23;;;4.65;;
74487;SDS011;63019;51.080;13.642;2023-04-08T03:43:43;13.55;;;4.78;;
74487;SDS011;63019;51.080;13.642;2023-04-08T03:44:46;11.93;;;5.00;;
74487;SDS011;63019;51.080;13.642;2023-04-08T03:45:47;11.73;;;4.53;;
74487;SDS011;63019;51.080;13.642;2023-04-08T03:46:49;11.20;;;4.13;;
74487;SDS011;63019;51.080;13.642;2023-04-08T03:47:51;12.27;;;4.28;;
74487;SDS011;63019;51.080;13.642;2023-04-08T03:48:53;9.40;;;4.18;;
74487;SDS011;63019;51.080;13.642;2023-04-08T03:49:55;11.00;;;4.50;;
74487;SDS011;63019;51.080;13.642;2023-04-08T03:50:56;13.07;;;4.28;;
74487;SDS011;63019;51.080;13.642;2023-04-08T03:51:58;9.90;;;4.05;;
74487;SDS011;63019;51.080;13.642;2023-04-08T03:53:00;9.68;;;3.58;;
74487;SDS011;63019;51.080;13.642;2023-04-08T03:54:02;10.52;;;4.50;;
74487;SDS011;63019;51.080;13.642;2023-04-08T03:55:03;15.30;;;4.73;;
74487;SDS011;63019;51.080;13.642;2023-04-08T03:56:06;16.33;;;4.43;;
74487;SDS011;63019;51.080;13.642;2023-04-08T03:57:08;10.73;;;4.88;;
74487;SDS011;63019;51.080;13.642;2023-04-08T03:58:09;12.13;;;4.55;;
74487;SDS011;63019;51.080;13.642;2023-04-08T03:59:11;12.13;;;4.57;;
74487;SDS011;63019;51.080;13.642;2023-04-08T04:00:13;10.90;;;4.45;;
74487;SDS011;63019;51.080;13.642;2023-04-08T04:01:15;12.77;;;4.22;;
74487;SDS011;63019;51.080;13.642;2023-04-08T04:02:17;7.03;;;3.50;;
74487;SDS011;63019;51.080;13.642;2023-04-08T04:03:19;11.10;;;4.55;;
74487;SDS011;63019;51.080;13.642;2023-04-08T04:04:22;12.48;;;4.80;;
74487;SDS011;63019;51.080;13.642;2023-04-08T04:05:24;12.13;;;4.67;;
74487;SDS011;63019;51.080;13.642;2023-04-08T04:06:26;12.32;;;4.80;;
74487;SDS011;63019;51.080;13.642;2023-04-08T04:07:28;10.63;;;4.03;;
74487;SDS011;63019;51.080;13.642;2023-04-08T04:08:30;12.38;;;4.35;;
74487;SDS011;63019;51.080;13.642;2023-04-08T04:09:31;10.02;;;4.10;;
74487;SDS011;63019;51.080;13.642;2023-04-08T04:10:33;10.32;;;4.15;;
74487;SDS011;63019;51.080;13.642;2023-04-08T04:11:36;9.38;;;4.20;;
74487;SDS011;63019;51.080;13.642;2023-04-08T04:12:38;12.30;;;4.40;;
74487;SDS011;63019;51.080;13.642;2023-04-08T04:13:39;11.10;;;4.07;;
74487;SDS011;63019;51.080;13.642;2023-04-08T04:14:41;10.40;;;4.15;;
74487;SDS011;63019;51.080;13.642;2023-04-08T04:15:43;8.90;;;3.97;;
74487;SDS011;63019;51.080;13.642;2023-04-08T04:16:45;12.18;;;4.43;;
74487;SDS011;63019;51.080;13.642;2023-04-08T04:17:47;12.20;;;4.57;;
74487;SDS011;63019;51.080;13.642;2023-04-08T04:18:53;12.93;;;4.03;;
74487;SDS011;63019;51.080;13.642;2023-04-08T04:19:55;8.77;;;4.00;;
74487;SDS011;63019;51.080;13.642;2023-04-08T04:20:56;17.63;;;6.28;;
74487;SDS011;63019;51.080;13.642;2023-04-08T04:21:58;9.95;;;4.63;;
74487;SDS011;63019;51.080;13.642;2023-04-08T04:23:00;9.20;;;4.00;;
74487;SDS011;63019;51.080;13.642;2023-04-08T04:24:02;9.18;;;3.78;;
74487;SDS011;63019;51.080;13.642;2023-04-08T04:25:04;12.70;;;4.32;;
74487;SDS011;63019;51.080;13.642;2023-04-08T04:26:07;10.53;;;3.93;;
74487;SDS011;63019;51.080;13.642;2023-04-08T04:27:09;10.15;;;4.25;;
74487;SDS011;63019;51.080;13.642;2023-04-08T04:28:11;10.38;;;3.92;;
74487;SDS011;63019;51.080;13.642;2023-04-08T04:29:14;10.80;;;4.68;;
74487;SDS011;63019;51.080;13.642;2023-04-08T04:30:15;13.13;;;4.68;;
74487;SDS011;63019;51.080;13.642;2023-04-08T04:31:19;11.85;;;4.15;;
74487;SDS011;63019;51.080;13.642;2023-04-08T04:32:23;10.55;;;4.53;;
74487;SDS011;63019;51.080;13.642;2023-04-08T04:33:25;12.60;;;4.40;;
74487;SDS011;63019;51.080;13.642;2023-04-08T04:34:27;12.07;;;4.32;;
74487;SDS011;63019;51.080;13.642;2023-04-08T04:35:32;12.15;;;4.00;;
74487;SDS011;63019;51.080;13.642;2023-04-08T04:36:34;10.40;;;4.00;;
74487;SDS011;63019;51.080;13.642;2023-04-08T04:37:36;9.77;;;3.85;;
74487;SDS011;63019;51.080;13.642;2023-04-08T04:38:37;11.75;;;4.22;;
74487;SDS011;63019;51.080;13.642;2023-04-08T04:39:39;12.73;;;4.90;;
74487;SDS011;63019;51.080;13.642;2023-04-08T04:40:41;8.13;;;3.72;;
74487;SDS011;63019;51.080;13.642;2023-04-08T04:41:44;11.80;;;4.25;;
74487;SDS011;63019;51.080;13.642;2023-04-08T04:42:47;12.25;;;4.65;;
74487;SDS011;63019;51.080;13.642;2023-04-08T04:43:49;13.27;;;4.40;;
74487;SDS011;63019;51.080;13.642;2023-04-08T04:44:51;15.90;;;4.88;;
74487;SDS011;63019;51.080;13.642;2023-04-08T04:45:54;11.27;;;4.53;;
74487;SDS011;63019;51.080;13.642;2023-04-08T04:46:57;12.80;;;4.83;;
74487;SDS011;63019;51.080;13.642;2023-04-08T04:48:00;12.43;;;4.40;;
74487;SDS011;63019;51.080;13.642;2023-04-08T04:49:03;13.23;;;4.70;;
74487;SDS011;63019;51.080;13.642;2023-04-08T04:50:05;12.27;;;4.47;;
74487;SDS011;63019;51.080;13.642;2023-04-08T04:51:07;7.28;;;3.25;;
74487;SDS011;63019;51.080;13.642;2023-04-08T04:52:09;12.52;;;4.20;;
74487;SDS011;63019;51.080;13.642;2023-04-08T04:53:11;16.23;;;4.20;;
74487;SDS011;63019;51.080;13.642;2023-04-08T04:54:13;17.27;;;4.60;;
74487;SDS011;63019;51.080;13.642;2023-04-08T04:55:15;11.65;;;3.38;;
74487;SDS011;63019;51.080;13.642;2023-04-08T04:56:16;11.80;;;4.78;;
74487;SDS011;63019;51.080;13.642;2023-04-08T04:57:18;9.03;;;3.90;;
74487;SDS011;63019;51.080;13.642;2023-04-08T04:58:20;12.13;;;4.22;;
74487;SDS011;63019;51.080;13.642;2023-04-08T04:59:22;13.20;;;4.68;;
74487;SDS011;63019;51.080;13.642;2023-04-08T05:00:24;13.40;;;4.40;;
74487;SDS011;63019;51.080;13.642;2023-04-08T05:01:25;16.00;;;4.90;;
74487;SDS011;63019;51.080;13.642;2023-04-08T05:02:29;12.57;;;4.85;;
74487;SDS011;63019;51.080;13.642;2023-04-08T05:03:31;11.13;;;4.10;;
74487;SDS011;63019;51.080;13.642;2023-04-08T05:04:33;10.77;;;4.13;;
74487;SDS011;63019;51.080;13.642;2023-04-08T05:05:34;14.40;;;4.45;;
74487;SDS011;63019;51.080;13.642;2023-04-08T05:06:36;14.10;;;4.95;;
74487;SDS011;63019;51.080;13.642;2023-04-08T05:07:38;17.57;;;5.20;;
74487;SDS011;63019;51.080;13.642;2023-04-08T05:08:40;19.60;;;5.32;;
74487;SDS011;63019;51.080;13.642;2023-04-08T05:09:41;20.33;;;5.20;;
74487;SDS011;63019;51.080;13.642;2023-04-08T05:10:43;22.23;;;4.80;;
74487;SDS011;63019;51.080;13.642;2023-04-08T05:11:45;18.77;;;5.50;;
74487;SDS011;63019;51.080;13.642;2023-04-08T05:12:47;25.83;;;5.25;;
74487;SDS011;63019;51.080;13.642;2023-04-08T05:13:49;52.45;;;6.55;;
74487;SDS011;63019;51.080;13.642;2023-04-08T05:14:50;26.90;;;5.68;;
74487;SDS011;63019;51.080;13.642;2023-04-08T05:15:52;21.10;;;5.07;;
74487;SDS011;63019;51.080;13.642;2023-04-08T05:16:54;14.85;;;5.13;;
74487;SDS011;63019;51.080;13.642;2023-04-08T05:17:56;19.17;;;5.40;;
74487;SDS011;63019;51.080;13.642;2023-04-08T05:18:58;16.88;;;4.57;;
74487;SDS011;63019;51.080;13.642;2023-04-08T05:20:00;46.85;;;6.15;;
74487;SDS011;63019;51.080;13.642;2023-04-08T05:21:02;16.20;;;5.30;;
74487;SDS011;63019;51.080;13.642;2023-04-08T05:22:04;21.65;;;6.25;;
74487;SDS011;63019;51.080;13.642;2023-04-08T05:23:06;21.00;;;5.43;;
74487;SDS011;63019;51.080;13.642;2023-04-08T05:24:08;14.80;;;4.80;;
74487;SDS011;63019;51.080;13.642;2023-04-08T05:25:10;14.90;;;4.82;;
74487;SDS011;63019;51.080;13.642;2023-04-08T05:26:12;13.38;;;4.57;;
74487;SDS011;63019;51.080;13.642;2023-04-08T05:27:16;13.88;;;5.15;;
74487;SDS011;63019;51.080;13.642;2023-04-08T05:28:18;13.33;;;5.30;;
74487;SDS011;63019;51.080;13.642;2023-04-08T05:29:20;18.40;;;5.85;;
74487;SDS011;63019;51.080;13.642;2023-04-08T05:30:22;20.33;;;5.32;;
74487;SDS011;63019;51.080;13.642;2023-04-08T05:31:23;18.02;;;5.38;;
74487;SDS011;63019;51.080;13.642;2023-04-08T05:32:25;14.48;;;5.25;;
74487;SDS011;63019;51.080;13.642;2023-04-08T05:33:27;10.63;;;4.57;;
74487;SDS011;63019;51.080;13.642;2023-04-08T05:34:30;12.48;;;5.10;;
74487;SDS011;63019;51.080;13.642;2023-04-08T05:35:32;15.57;;;5.05;;
74487;SDS011;63019;51.080;13.642;2023-04-08T05:36:34;13.20;;;5.00;;
74487;SDS011;63019;51.080;13.642;2023-04-08T05:37:35;12.57;;;5.03;;
74487;SDS011;63019;51.080;13.642;2023-04-08T05:38:37;12.50;;;4.83;;
74487;SDS011;63019;51.080;13.642;2023-04-08T05:39:39;12.13;;;4.47;;
74487;SDS011;63019;51.080;13.642;2023-04-08T05:40:42;15.98;;;4.93;;
74487;SDS011;63019;51.080;13.642;2023-04-08T05:41:44;16.42;;;5.05;;
74487;SDS011;63019;51.080;13.642;2023-04-08T05:42:46;13.55;;;4.70;;
74487;SDS011;63019;51.080;13.642;2023-04-08T05:43:48;10.10;;;4.55;;
74487;SDS011;63019;51.080;13.642;2023-04-08T05:44:50;10.93;;;4.43;;
74487;SDS011;63019;51.080;13.642;2023-04-08T05:45:52;11.00;;;4.72;;
74487;SDS011;63019;51.080;13.642;2023-04-08T05:46:54;15.77;;;5.10;;
74487;SDS011;63019;51.080;13.642;2023-04-08T05:47:57;15.13;;;4.93;;
74487;SDS011;63019;51.080;13.642;2023-04-08T05:48:59;11.57;;;4.73;;
74487;SDS011;63019;51.080;13.642;2023-04-08T05:50:01;11.50;;;4.88;;
74487;SDS011;63019;51.080;13.642;2023-04-08T05:51:03;15.02;;;4.95;;
74487;SDS011;63019;51.080;13.642;2023-04-08T05:52:05;14.73;;;5.35;;
74487;SDS011;63019;51.080;13.642;2023-04-08T05:53:07;14.50;;;5.35;;
74487;SDS011;63019;51.080;13.642;2023-04-08T05:54:10;13.27;;;5.15;;
74487;SDS011;63019;51.080;13.642;2023-04-08T05:55:12;12.45;;;5.28;;
74487;SDS011;63019;51.080;13.642;2023-04-08T05:56:14;15.25;;;5.32;;
74487;SDS011;63019;51.080;13.642;2023-04-08T05:57:16;14.35;;;5.63;;
74487;SDS011;63019;51.080;13.642;2023-04-08T05:58:18;13.43;;;5.63;;
74487;SDS011;63019;51.080;13.642;2023-04-08T05:59:20;15.10;;;5.60;;
74487;SDS011;63019;51.080;13.642;2023-04-08T06:00:21;13.15;;;5.50;;
74487;SDS011;63019;51.080;13.642;2023-04-08T06:01:23;13.20;;;5.40;;
74487;SDS011;63019;51.080;13.642;2023-04-08T06:02:26;12.45;;;5.68;;
74487;SDS011;63019;51.080;13.642;2023-04-08T06:03:29;13.88;;;5.38;;
74487;SDS011;63019;51.080;13.642;2023-04-08T06:04:31;13.70;;;5.22;;
74487;SDS011;63019;51.080;13.642;2023-04-08T06:05:33;14.25;;;6.07;;
74487;SDS011;63019;51.080;13.642;2023-04-08T06:06:38;14.63;;;5.97;;
74487;SDS011;63019;51.080;13.642;2023-04-08T06:07:40;17.13;;;6.43;;
74487;SDS011;63019;51.080;13.642;2023-04-08T06:08:42;14.35;;;5.97;;
74487;SDS011;63019;51.080;13.642;2023-04-08T06:09:44;13.40;;;5.87;;
74487;SDS011;63019;51.080;13.642;2023-04-08T06:10:49;15.38;;;5.88;;